Time;durP1;ratioP1;P1;durP2;ratioP2;P2;SDS_P1;SDS_P2;PMS_P1;PMS_P2;Temp;Humidity;BMP_temperature;BMP_pressure;BME280_temperature;BME280_humidity;BME280_pressure;Samples;Min_cycle;Max_cycle;Signal;HPM_P1;HPM_P2
2022/02/10 01:12:05;;;;;;;59.67;39.35;;;51.80;2227.20;;;;;;4936226;29;20499;-83
2022/02/10 09:00:49;;;;;;;51.65;35.13;;;128.20;2252.80;;;;;;4883197;29;20398;-79
2022/02/10 09:16:54;;;;;;;30.05;20.83;;;153.70;2252.80;;;;;;4877517;29;20474;-81
2022/02/10 09:59:00;;;;;;;33.55;22.92;;;204.80;2252.80;;;;;;4881982;29;20049;-79
2022/02/10 10:01:34;;;;;;;28.55;18.95;;;205.00;2252.80;;;;;;4865155;29;20032;-78
2022/02/10 10:04:27;;;;;;;34.83;22.83;;;205.20;2252.80;;;;;;4864938;29;20059;-80
2022/02/10 10:17:10;;;;;;;30.92;22.40;;;205.20;2252.80;;;;;;4880194;29;20047;-79
2022/02/10 10:25:52;;;;;;;29.20;18.50;;;230.40;2252.80;;;;;;4880682;29;20029;-79
2022/02/10 10:54:54;;;;;;;65.55;46.05;;;231.00;2252.80;;;;;;6021316;23;20266;31
2022/02/10 10:57:49;;;;;;;84.32;51.55;;;231.10;2252.80;;;;;;4877726;29;20056;-78
2022/02/10 13:29:38;;;;;;;30.95;20.48;;;486.40;1868.80;;;;;;4861669;29;20033;-76
2022/02/10 13:49:00;;;;;;;30.70;19.23;;;486.40;1894.40;;;;;;4863439;29;20064;-76
2022/02/10 14:12:54;;;;;;;25.40;14.52;;;487.00;1792.00;;;;;;4881970;29;20492;-76
2022/02/10 14:23:18;;;;;;;30.13;19.50;;;487.00;1792.00;;;;;;4881525;29;20077;-75
2022/02/10 14:26:28;;;;;;;31.63;19.45;;;486.80;1817.60;;;;;;4880256;29;20397;-76
2022/02/10 14:28:38;;;;;;;25.90;20.00;;;486.50;1843.20;;;;;;4878314;29;20033;-76
2022/02/10 14:31:06;;;;;;;26.75;18.05;;;461.50;1868.80;;;;;;4895611;29;20072;-76
2022/02/10 14:33:35;;;;;;;39.63;23.35;;;460.90;1894.40;;;;;;4880236;29;20033;-76
2022/02/10 14:36:18;;;;;;;27.83;19.67;;;435.80;1920.00;;;;;;4864557;29;20029;-77
2022/02/10 14:39:14;;;;;;;34.58;21.58;;;435.40;1945.60;;;;;;4880255;29;20033;-76
2022/02/10 15:36:03;;;;;;;90.97;60.45;;;358.80;2252.80;;;;;;4861098;29;20045;-76
2022/02/10 15:52:03;;;;;;;95.07;68.07;;;333.30;2329.60;;;;;;4861399;29;20044;-75
2022/02/10 16:18:49;;;;;;;159.18;96.35;;;307.50;2304.00;;;;;;4879802;29;20081;-75
2022/02/10 16:21:30;;;;;;;167.60;96.22;;;307.30;2304.00;;;;;;4878686;29;20124;-74
2022/02/10 16:24:02;;;;;;;164.65;104.25;;;282.50;2278.40;;;;;;4878502;29;20064;-76
2022/02/10 16:26:40;;;;;;;164.45;104.13;;;282.40;2278.40;;;;;;4879653;29;20064;-73
2022/02/10 16:29:08;;;;;;;147.00;94.63;;;282.30;2278.40;;;;;;4893912;29;20037;-78
2022/02/10 16:31:34;;;;;;;121.53;82.90;;;282.10;2278.40;;;;;;4879827;29;20033;-76
2022/02/10 16:34:01;;;;;;;164.77;105.55;;;282.00;2278.40;;;;;;4862777;29;20143;-76
2022/02/10 16:36:30;;;;;;;181.68;113.75;;;282.00;2278.40;;;;;;4863181;29;20442;-77
2022/02/10 16:38:56;;;;;;;190.40;127.57;;;281.90;2278.40;;;;;;4879836;29;20033;-76
2022/02/10 16:41:22;;;;;;;299.63;177.82;;;281.80;2278.40;;;;;;4879515;29;20429;-75
2022/02/10 16:43:48;;;;;;;252.15;161.10;;;281.70;2278.40;;;;;;4894030;29;20040;-74
2022/02/10 16:46:14;;;;;;;261.55;191.02;;;281.70;2278.40;;;;;;4893691;29;20133;-76
2022/02/10 16:48:41;;;;;;;224.52;147.80;;;256.90;2252.80;;;;;;4879736;29;20108;-76
2022/02/10 16:51:09;;;;;;;210.93;141.38;;;256.90;2252.80;;;;;;4893784;29;20465;-75
2022/02/10 16:53:42;;;;;;;193.80;134.15;;;256.80;2252.80;;;;;;4893053;29;20021;-74
2022/02/10 16:56:14;;;;;;;142.50;99.45;;;256.70;2252.80;;;;;;4877795;29;20560;-75
2022/02/10 16:58:57;;;;;;;174.25;117.88;;;256.60;2252.80;;;;;;4879352;29;20025;-75
2022/02/10 17:01:57;;;;;;;182.80;117.40;;;256.50;2252.80;;;;;;4878098;29;20060;-75
2022/02/10 17:04:42;;;;;;;214.52;147.07;;;256.50;2252.80;;;;;;4882061;29;20040;-75
2022/02/10 17:26:02;;;;;;;303.17;188.88;;;231.30;2252.80;;;;;;4882970;29;20075;-75
2022/02/10 17:28:28;;;;;;;320.13;194.43;;;231.20;2252.80;;;;;;4896474;29;20021;-75
2022/02/10 17:36:16;;;;;;;606.35;410.83;;;230.90;2252.80;;;;;;4872327;29;20049;-75
2022/02/10 17:41:46;;;;;;;426.75;275.33;;;230.80;2252.80;;;;;;4882724;29;20052;-74
2022/02/10 17:44:21;;;;;;;399.85;255.18;;;230.80;2252.80;;;;;;4896334;29;20029;-76
2022/02/10 17:52:13;;;;;;;247.00;162.13;;;230.70;2252.80;;;;;;4882569;29;20532;-75
2022/02/10 17:54:41;;;;;;;294.02;184.63;;;230.60;2252.80;;;;;;4896698;29;20469;-74
2022/02/10 17:57:08;;;;;;;331.50;218.35;;;230.70;2252.80;;;;;;4896131;29;20053;-75
2022/02/10 17:59:34;;;;;;;363.15;228.25;;;230.70;2252.80;;;;;;4881055;29;20033;-75
2022/02/10 18:02:15;;;;;;;319.55;218.82;;;230.70;2252.80;;;;;;4896331;29;20032;-76
2022/02/10 18:04:44;;;;;;;304.40;198.85;;;230.60;2252.80;;;;;;4896048;29;20028;-76
2022/02/10 18:07:11;;;;;;;312.25;205.00;;;230.50;2252.80;;;;;;4896295;29;20025;-75
2022/02/10 18:30:21;;;;;;;387.05;263.88;;;205.10;2252.80;;;;;;4751363;30;20115;-78
2022/02/10 19:01:49;;;;;;;346.60;229.63;;;179.90;2252.80;;;;;;4881192;29;20053;-76
2022/02/10 19:07:16;;;;;;;362.75;240.57;;;179.80;2252.80;;;;;;4860615;29;20044;-79
2022/02/10 19:09:45;;;;;;;380.10;252.60;;;180.00;2252.80;;;;;;4895088;29;20173;-78
2022/02/10 19:12:25;;;;;;;382.90;258.90;;;204.90;2252.80;;;;;;4879630;29;20029;-80
2022/02/10 19:15:12;;;;;;;445.23;293.10;;;179.60;2252.80;;;;;;4879199;29;20086;-78
2022/02/10 19:17:41;;;;;;;438.20;289.65;;;179.50;2252.80;;;;;;4878948;29;20033;-79
2022/02/10 19:20:07;;;;;;;420.50;274.65;;;179.60;2252.80;;;;;;4879239;29;20025;-77
2022/02/10 19:22:33;;;;;;;393.80;267.27;;;179.60;2252.80;;;;;;4894910;29;20025;-79
2022/02/10 19:25:02;;;;;;;377.27;256.17;;;179.50;2252.80;;;;;;4897980;29;20037;-78
2022/02/10 19:27:30;;;;;;;336.35;223.63;;;179.50;2252.80;;;;;;4897198;29;20032;-79
2022/02/10 19:29:58;;;;;;;417.65;274.58;;;179.40;2252.80;;;;;;4897954;29;20037;-78
2022/02/10 19:32:28;;;;;;;401.60;263.65;;;179.30;2252.80;;;;;;4897978;29;20417;-77
2022/02/10 19:34:58;;;;;;;420.65;285.48;;;179.40;2252.80;;;;;;4897727;29;20456;-78
2022/02/10 19:37:25;;;;;;;415.27;277.95;;;179.30;2252.80;;;;;;4897665;29;20031;-78
2022/02/10 19:40:02;;;;;;;408.67;277.65;;;179.40;2252.80;;;;;;4897847;29;20035;-78
2022/02/10 19:42:32;;;;;;;423.10;281.73;;;179.30;2252.80;;;;;;4897681;29;20495;-77
2022/02/10 19:45:00;;;;;;;454.13;298.20;;;154.50;2252.80;;;;;;4897832;29;20032;-78
2022/02/10 19:47:38;;;;;;;456.73;311.67;;;154.50;2252.80;;;;;;4897798;29;20036;-79
2022/02/10 19:50:15;;;;;;;453.77;307.88;;;154.50;2252.80;;;;;;4897549;29;20035;-79
2022/02/10 19:52:49;;;;;;;494.48;345.83;;;154.50;2252.80;;;;;;4897831;29;20032;-79
2022/02/10 19:55:23;;;;;;;449.55;312.42;;;154.50;2252.80;;;;;;4897427;29;20056;-78
2022/02/10 19:57:55;;;;;;;452.52;315.77;;;154.50;2252.80;;;;;;4897322;29;20045;-79
2022/02/10 20:00:30;;;;;;;463.13;321.08;;;154.50;2252.80;;;;;;4897676;29;20025;-79
2022/02/10 20:03:00;;;;;;;487.65;333.23;;;154.30;2252.80;;;;;;4897369;29;20032;-78
2022/02/10 20:05:34;;;;;;;484.75;340.45;;;154.30;2252.80;;;;;;4897549;29;20029;-78
2022/02/10 20:08:00;;;;;;;496.15;347.27;;;154.20;2252.80;;;;;;4897462;29;20029;-78
2022/02/10 20:10:26;;;;;;;511.05;374.35;;;154.10;2252.80;;;;;;4897021;29;20476;-78
2022/02/10 20:12:55;;;;;;;497.05;353.77;;;154.20;2252.80;;;;;;4897461;29;20085;-79
2022/02/10 20:15:24;;;;;;;474.63;318.27;;;154.20;2252.80;;;;;;4897411;29;20032;-79
2022/02/10 20:17:55;;;;;;;419.48;272.73;;;154.20;2252.80;;;;;;4897077;29;20447;-79
2022/02/10 20:20:21;;;;;;;386.08;252.07;;;154.10;2252.80;;;;;;4897081;29;20031;-81
2022/02/10 20:22:47;;;;;;;427.85;287.33;;;154.20;2252.80;;;;;;4897643;29;20025;-80
2022/02/10 20:25:13;;;;;;;427.20;281.63;;;154.20;2252.80;;;;;;4898248;29;20495;-82
2022/02/10 20:27:38;;;;;;;451.58;299.83;;;154.00;2252.80;;;;;;4898568;29;20115;-81
2022/02/10 20:30:06;;;;;;;446.55;303.05;;;154.10;2252.80;;;;;;4897177;29;20115;-80
2022/02/10 20:32:32;;;;;;;492.15;331.27;;;154.10;2252.80;;;;;;4897406;29;20033;-82
2022/02/10 20:35:18;;;;;;;483.88;341.27;;;179.40;2252.80;;;;;;4896435;29;20096;-81
2022/02/10 20:37:44;;;;;;;504.25;359.00;;;153.90;2252.80;;;;;;4897160;29;20033;-80
2022/02/10 20:40:10;;;;;;;531.40;376.52;;;153.80;2252.80;;;;;;4900925;29;20104;-81
2022/02/10 20:42:39;;;;;;;530.42;374.60;;;153.70;2252.80;;;;;;4901241;29;20039;-80
2022/02/10 20:45:07;;;;;;;477.30;327.52;;;153.90;2252.80;;;;;;4900920;29;20123;-79
2022/02/10 20:47:35;;;;;;;431.08;297.73;;;153.70;2252.80;;;;;;4901182;29;20028;-80
2022/02/10 20:50:13;;;;;;;412.60;270.00;;;153.80;2252.80;;;;;;4900530;29;20040;-81
2022/02/10 20:52:42;;;;;;;397.05;260.35;;;153.70;2252.80;;;;;;4900337;29;20029;-81
2022/02/10 20:55:32;;;;;;;448.15;290.50;;;153.70;2252.80;;;;;;4900854;29;20033;-80
2022/02/10 20:57:58;;;;;;;385.05;258.67;;;154.50;2252.80;;;;;;4900046;29;20068;-81
2022/02/10 21:00:32;;;;;;;337.75;232.95;;;153.60;2252.80;;;;;;4900659;29;20032;-80
2022/02/10 21:02:58;;;;;;;322.98;219.60;;;128.90;2252.80;;;;;;4900755;29;20036;-81
2022/02/10 21:10:36;;;;;;;394.42;264.13;;;128.80;2252.80;;;;;;4901895;29;20043;-80
2022/02/10 21:13:03;;;;;;;363.73;235.65;;;128.90;2252.80;;;;;;4900537;29;20123;-80
2022/02/10 21:15:36;;;;;;;322.10;210.18;;;128.90;2252.80;;;;;;4901913;29;20032;-80
2022/02/10 21:18:06;;;;;;;394.08;258.75;;;153.70;2252.80;;;;;;4900681;29;20040;-80
2022/02/10 21:20:35;;;;;;;352.10;222.30;;;153.70;2252.80;;;;;;4899899;29;20131;-80
2022/02/10 21:25:48;;;;;;;286.45;184.98;;;128.80;2252.80;;;;;;4894759;29;20040;-81
2022/02/10 21:28:20;;;;;;;300.50;197.80;;;128.80;2252.80;;;;;;4899914;29;20036;-80
2022/02/10 21:30:49;;;;;;;382.92;256.50;;;128.40;2252.80;;;;;;4901749;29;20028;-81
2022/02/10 21:33:24;;;;;;;323.70;213.10;;;128.40;2252.80;;;;;;4900018;29;20040;-81
2022/02/10 21:38:37;;;;;;;263.42;171.13;;;128.30;2252.80;;;;;;4901282;29;20035;-80
2022/02/10 21:41:21;;;;;;;319.85;194.95;;;128.40;2252.80;;;;;;4899953;29;20033;-81
2022/02/10 21:55:12;;;;;;;223.63;134.85;;;128.30;2252.80;;;;;;4900731;29;20067;-80
2022/02/10 22:01:34;;;;;;;226.73;139.85;;;128.00;2252.80;;;;;;4901116;29;20057;-78
2022/02/10 22:17:06;;;;;;;171.32;100.32;;;103.10;2227.20;;;;;;4900523;29;20061;-79
2022/02/10 22:19:42;;;;;;;162.98;97.88;;;103.00;2227.20;;;;;;4910723;29;20016;-73
2022/02/10 22:25:30;;;;;;;192.85;110.13;;;102.80;2227.20;;;;;;4929237;29;20167;-75
2022/02/10 22:28:09;;;;;;;198.27;110.53;;;102.70;2227.20;;;;;;4931351;29;20479;-80
2022/02/10 22:30:51;;;;;;;489.17;220.80;;;102.60;2227.20;;;;;;4916601;29;20031;-79
2022/02/10 22:35:45;;;;;;;440.63;230.60;;;102.70;2227.20;;;;;;4919005;29;20176;-80
2022/02/10 22:38:12;;;;;;;538.05;275.00;;;102.70;2227.20;;;;;;4917401;29;20114;-78
2022/02/10 22:40:58;;;;;;;401.20;229.10;;;102.70;2227.20;;;;;;4918166;29;20032;-78
2022/02/10 22:43:24;;;;;;;390.50;233.05;;;102.70;2227.20;;;;;;4917277;29;20028;-78
2022/02/10 22:45:49;;;;;;;396.30;242.13;;;102.70;2227.20;;;;;;4916697;29;20032;-80
2022/02/10 22:48:15;;;;;;;506.33;306.15;;;102.70;2227.20;;;;;;4918056;29;20035;-79
2022/02/10 22:50:41;;;;;;;582.55;327.27;;;102.60;2227.20;;;;;;4916798;29;20606;-80
2022/02/10 22:53:07;;;;;;;573.50;315.60;;;102.60;2227.20;;;;;;4916332;29;20036;-80
2022/02/10 22:55:33;;;;;;;254.52;146.35;;;102.50;2227.20;;;;;;4916766;29;20171;-80
2022/02/10 22:57:59;;;;;;;202.30;117.25;;;102.60;2227.20;;;;;;4916209;29;20063;-80
2022/02/10 23:00:34;;;;;;;178.98;106.25;;;102.70;2227.20;;;;;;4915824;29;20032;-79
2022/02/10 23:03:00;;;;;;;230.52;126.32;;;102.50;2227.20;;;;;;4917004;29;20060;-78
2022/02/10 23:05:25;;;;;;;272.23;139.23;;;102.40;2227.20;;;;;;4917747;29;20240;-80
2022/02/10 23:07:56;;;;;;;461.38;214.02;;;102.40;2227.20;;;;;;4916569;29;20448;-81
2022/02/10 23:10:45;;;;;;;388.40;206.73;;;102.40;2227.20;;;;;;4916819;29;20028;-80
2022/02/10 23:13:16;;;;;;;390.38;195.02;;;102.40;2227.20;;;;;;4916537;29;20177;-82
2022/02/10 23:15:42;;;;;;;429.33;219.80;;;102.50;2227.20;;;;;;4917518;29;20127;-81
2022/02/10 23:18:20;;;;;;;348.58;186.55;;;103.00;2227.20;;;;;;4916391;29;20032;-82
2022/02/10 23:20:47;;;;;;;270.60;148.50;;;102.60;2227.20;;;;;;4916679;29;20032;-79
2022/02/10 23:23:15;;;;;;;247.10;139.20;;;102.60;2227.20;;;;;;4916001;29;20038;-80
2022/02/10 23:25:43;;;;;;;221.02;131.52;;;102.60;2227.20;;;;;;4912392;29;20028;-78
2022/02/10 23:28:13;;;;;;;246.63;141.82;;;102.40;2227.20;;;;;;4896309;29;20472;-81
2022/02/10 23:30:40;;;;;;;313.48;187.52;;;102.40;2227.20;;;;;;4896873;29;20043;-80
2022/02/10 23:33:17;;;;;;;318.55;188.18;;;77.70;2227.20;;;;;;4896662;29;20036;-79
2022/02/10 23:36:30;;;;;;;334.83;197.45;;;102.40;2227.20;;;;;;4897047;29;20040;-78
2022/02/10 23:39:08;;;;;;;297.05;176.68;;;77.70;2227.20;;;;;;4897748;29;20415;-80
2022/02/10 23:44:19;;;;;;;281.00;163.77;;;77.50;2227.20;;;;;;4898117;29;20036;-81
2022/02/10 23:46:46;;;;;;;271.65;160.32;;;77.50;2227.20;;;;;;4896863;29;20084;-80
2022/02/10 23:49:19;;;;;;;325.45;185.23;;;77.70;2227.20;;;;;;4897244;29;20028;-80
2022/02/10 23:51:51;;;;;;;356.42;204.98;;;77.70;2227.20;;;;;;4896595;29;20488;-80
2022/02/10 23:54:17;;;;;;;340.03;201.17;;;77.70;2227.20;;;;;;4893947;29;20076;-79
2022/02/10 23:56:49;;;;;;;344.23;204.20;;;77.50;2227.20;;;;;;4896129;29;20713;-81
2022/02/10 23:59:37;;;;;;;337.52;201.68;;;77.70;2227.20;;;;;;4896853;29;20400;-81
